SLC weather

Salt Lake City International Airport
Salt Lake City, Utah, United States

Public forecast

Using degrees Fahrenheit for public forecast. Weather courtesy of forecast.io.

Current aviation weather report (METAR) for Salt Lake City International Airport

Retrieved 2020/01/23 09:54 UTC (41 minutes ago):

KSLC 230954Z 15003KT 10SM BKN042 OVC050 03/01 A3025 RMK AO2 SLP240 T00330006

Aviation forecast (TAF) for Salt Lake City International Airport

Retrieved 2020/01/23 06:54 UTC (4 hours ago):

TAF KSLC 230553Z 2306/2412 15006KT P6SM BKN040 OVC060 FM232100 33006KT P6SM SCT030 BKN060 FM240300 15006KT P6SM SCT040 BKN080